createdAt,value
2022-11-16T00:01:44.057Z,12.07
2022-11-16T00:04:12.056Z,14.05
2022-11-16T00:06:39.409Z,14.30
2022-11-16T00:09:26.845Z,12.65
2022-11-16T00:11:59.475Z,13.88
2022-11-16T00:14:28.948Z,13.00
2022-11-16T00:16:56.413Z,11.75
2022-11-16T00:19:24.942Z,13.20
2022-11-16T00:21:52.496Z,13.48
2022-11-16T00:24:20.598Z,10.57
2022-11-16T00:26:48.088Z,12.68
2022-11-16T00:29:23.958Z,12.90
2022-11-16T00:31:54.154Z,11.38
2022-11-16T00:34:22.282Z,11.57
2022-11-16T00:36:49.434Z,13.50
2022-11-16T00:39:19.003Z,14.23
2022-11-16T00:41:46.546Z,12.93
2022-11-16T00:44:13.597Z,12.55
2022-11-16T00:46:41.143Z,14.43
2022-11-16T00:49:07.970Z,11.25
2022-11-16T00:51:36.063Z,12.63
2022-11-16T00:54:03.875Z,11.00
2022-11-16T00:56:30.601Z,11.32
2022-11-16T00:58:57.229Z,11.48
2022-11-16T01:01:23.970Z,11.63
2022-11-16T01:03:50.771Z,11.00
2022-11-16T01:06:17.828Z,11.85
2022-11-16T01:08:45.093Z,12.23
2022-11-16T01:11:33.270Z,8.80
2022-11-16T01:14:02.418Z,12.15
2022-11-16T01:16:29.237Z,9.68
2022-11-16T01:18:55.984Z,10.65
2022-11-16T01:21:23.997Z,9.88
2022-11-16T01:23:51.034Z,9.17
2022-11-16T01:26:17.766Z,10.15
2022-11-16T01:28:44.616Z,10.35
2022-11-16T01:31:11.499Z,10.43
2022-11-16T01:33:38.542Z,10.05
2022-11-16T01:36:14.150Z,9.02
2022-11-16T01:38:45.580Z,9.10
2022-11-16T01:41:17.636Z,12.98
2022-11-16T01:44:00.792Z,8.43
2022-11-16T01:46:28.129Z,9.45
2022-11-16T01:49:10.651Z,9.43
2022-11-16T01:51:38.129Z,9.57
2022-11-16T01:54:08.576Z,9.57
2022-11-16T01:56:36.765Z,9.00
2022-11-16T01:59:04.404Z,9.95
2022-11-16T02:01:31.302Z,9.13
2022-11-16T02:03:58.129Z,8.77
2022-11-16T02:06:27.497Z,9.07
2022-11-16T02:09:34.411Z,9.85
2022-11-16T02:12:21.067Z,8.47
2022-11-16T02:15:11.565Z,9.75
2022-11-16T02:18:15.653Z,8.73
2022-11-16T02:21:04.205Z,8.00
2022-11-16T02:23:40.071Z,9.07
2022-11-16T02:26:36.538Z,9.07
2022-11-16T02:29:12.034Z,10.30
2022-11-16T02:31:44.313Z,8.82
2022-11-16T02:34:13.159Z,9.60
2022-11-16T02:36:44.145Z,9.05
2022-11-16T02:39:15.034Z,8.75
2022-11-16T02:41:44.141Z,8.37
2022-11-16T02:44:34.270Z,8.43
2022-11-16T02:47:05.103Z,8.98
2022-11-16T02:49:35.301Z,7.45
2022-11-16T02:52:03.981Z,8.43
2022-11-16T02:54:30.594Z,8.63
2022-11-16T02:57:02.945Z,7.43
2022-11-16T02:59:51.702Z,7.95
2022-11-16T03:02:18.250Z,7.32
2022-11-16T03:04:50.384Z,7.73
2022-11-16T03:07:21.360Z,7.38
2022-11-16T03:09:50.823Z,8.07
2022-11-16T03:12:23.944Z,7.47
2022-11-16T03:15:03.635Z,8.82
2022-11-16T03:17:32.512Z,7.88
2022-11-16T03:20:07.030Z,7.35
2022-11-16T03:22:39.789Z,9.00
2022-11-16T03:25:09.077Z,6.87
2022-11-16T03:27:49.654Z,6.53
2022-11-16T03:30:23.869Z,7.85
2022-11-16T03:33:08.740Z,8.17
2022-11-16T03:35:43.511Z,7.63
2022-11-16T03:38:11.881Z,7.53
2022-11-16T03:40:40.010Z,7.15
2022-11-16T03:43:07.977Z,6.72
2022-11-16T03:45:36.730Z,6.38
2022-11-16T03:48:03.466Z,7.45
2022-11-16T03:50:30.070Z,7.53
2022-11-16T03:52:56.648Z,6.47
2022-11-16T03:55:23.317Z,6.72
2022-11-16T03:57:49.917Z,7.87
2022-11-16T04:00:16.669Z,6.88
2022-11-16T04:02:43.284Z,6.82
2022-11-16T04:05:28.877Z,6.78
2022-11-16T04:08:14.222Z,7.20
2022-11-16T04:10:59.597Z,5.80
2022-11-16T04:13:51.654Z,6.63
2022-11-16T04:16:37.197Z,5.97
2022-11-16T04:19:22.292Z,6.70
2022-11-16T04:22:14.240Z,5.93
2022-11-16T04:24:44.058Z,6.80
2022-11-16T04:27:32.151Z,6.53
2022-11-16T04:30:01.530Z,5.75
2022-11-16T04:32:49.599Z,6.03
2022-11-16T04:35:48.428Z,5.38
2022-11-16T04:38:15.071Z,5.47
2022-11-16T04:40:41.680Z,7.30
2022-11-16T04:43:08.499Z,4.72
2022-11-16T04:45:53.755Z,5.97
2022-11-16T04:48:21.022Z,5.25
2022-11-16T04:50:47.719Z,4.90
2022-11-16T04:53:14.769Z,5.43
2022-11-16T04:55:41.395Z,5.80
2022-11-16T04:58:08.257Z,5.60
2022-11-16T05:00:34.926Z,5.47
2022-11-16T05:03:04.020Z,5.97
2022-11-16T05:05:30.660Z,4.95
2022-11-16T05:07:57.257Z,5.32
2022-11-16T05:10:23.839Z,6.07
2022-11-16T05:12:50.518Z,5.82
2022-11-16T05:15:19.605Z,7.00
2022-11-16T05:17:46.932Z,5.38
2022-11-16T05:20:31.928Z,5.53
2022-11-16T05:22:58.858Z,5.22
2022-11-16T05:25:25.998Z,4.85
2022-11-16T05:27:52.644Z,5.90
2022-11-16T05:30:19.359Z,5.78
2022-11-16T05:32:46.039Z,4.90
2022-11-16T05:35:12.680Z,5.05
2022-11-16T05:37:39.349Z,6.03
2022-11-16T05:40:07.374Z,5.63
2022-11-16T05:42:33.988Z,7.60
2022-11-16T05:45:00.641Z,5.23
2022-11-16T05:47:27.213Z,5.72
2022-11-16T05:49:53.801Z,8.15
2022-11-16T05:52:20.442Z,6.78
2022-11-16T05:54:47.037Z,7.47
2022-11-16T05:57:15.248Z,5.50
2022-11-16T05:59:42.375Z,5.93
2022-11-16T06:02:08.985Z,2.83
2022-11-16T06:04:35.643Z,2.65
2022-11-16T06:07:02.321Z,3.95
2022-11-16T06:09:29.068Z,2.55
2022-11-16T06:11:55.650Z,4.03
2022-11-16T06:14:22.340Z,5.03
2022-11-16T06:16:49.058Z,6.95
2022-11-16T06:19:15.633Z,9.40
2022-11-16T06:21:42.301Z,11.80
2022-11-16T06:24:09.417Z,6.80
2022-11-16T06:26:36.903Z,9.57
2022-11-16T06:29:04.345Z,9.85
2022-11-16T06:31:31.525Z,5.25
2022-11-16T06:33:58.163Z,10.30
2022-11-16T06:36:24.789Z,7.57
2022-11-16T06:38:51.431Z,5.10
2022-11-16T06:41:18.235Z,6.38
2022-11-16T06:43:45.237Z,6.15
2022-11-16T06:46:11.927Z,6.63
2022-11-16T06:48:38.528Z,8.23
2022-11-16T06:51:05.298Z,6.60
2022-11-16T06:53:31.902Z,5.85
2022-11-16T06:56:06.075Z,5.23
2022-11-16T06:58:33.565Z,5.97
2022-11-16T07:01:11.279Z,5.90
2022-11-16T07:03:38.463Z,4.78
2022-11-16T07:06:07.203Z,5.10
2022-11-16T07:08:34.021Z,5.55
2022-11-16T07:11:05.638Z,4.80
2022-11-16T07:13:33.639Z,5.03
2022-11-16T07:16:08.239Z,3.95
2022-11-16T07:18:39.764Z,7.03
2022-11-16T07:21:07.923Z,4.28
2022-11-16T07:23:35.146Z,5.35
2022-11-16T07:26:03.054Z,7.38
2022-11-16T07:28:29.818Z,3.90
2022-11-16T07:31:04.955Z,3.15
2022-11-16T07:33:31.835Z,3.78
2022-11-16T07:36:13.947Z,4.05
2022-11-16T07:38:40.739Z,6.55
2022-11-16T07:41:12.567Z,3.20
2022-11-16T07:43:40.287Z,3.40
2022-11-16T07:49:10.862Z,2.88
2022-11-16T07:51:37.853Z,3.90
2022-11-16T07:54:04.471Z,4.38
2022-11-16T07:56:31.060Z,3.72
2022-11-16T07:58:58.961Z,3.63
2022-11-16T08:01:25.629Z,2.75
2022-11-16T08:03:53.993Z,2.75
2022-11-16T08:06:26.907Z,2.85
2022-11-16T08:08:58.084Z,2.65
2022-11-16T08:11:25.690Z,4.57
2022-11-16T08:13:52.386Z,4.32
2022-11-16T08:16:21.951Z,2.78
2022-11-16T08:18:48.937Z,2.83
2022-11-16T08:21:17.071Z,3.40
2022-11-16T08:23:44.916Z,4.40
2022-11-16T08:26:16.404Z,2.53
2022-11-16T08:28:45.345Z,2.95
2022-11-16T08:31:19.154Z,2.20
2022-11-16T08:33:45.816Z,3.20
2022-11-16T08:36:17.243Z,4.18
2022-11-16T08:38:45.463Z,2.70
2022-11-16T08:41:12.353Z,5.93
2022-11-16T08:43:42.252Z,2.30
2022-11-16T08:46:12.468Z,3.63
2022-11-16T08:48:39.654Z,2.83
2022-11-16T08:51:17.911Z,2.72
2022-11-16T08:53:47.879Z,3.80
2022-11-16T08:56:14.790Z,2.88
2022-11-16T08:58:46.788Z,2.53
2022-11-16T09:01:18.998Z,3.50
2022-11-16T09:06:13.696Z,3.80
2022-11-16T09:08:41.911Z,4.28
2022-11-16T09:11:11.010Z,3.47
2022-11-16T09:13:37.756Z,3.53
2022-11-16T09:16:05.201Z,3.22
2022-11-16T09:18:32.504Z,1.67
2022-11-16T09:20:59.778Z,2.13
2022-11-16T09:25:53.457Z,2.53
2022-11-16T09:28:22.132Z,2.38
2022-11-16T09:30:50.879Z,1.95
2022-11-16T09:33:18.120Z,3.67
2022-11-16T09:35:44.857Z,3.05
2022-11-16T09:38:15.981Z,2.88
2022-11-16T09:40:47.333Z,2.20
2022-11-16T09:43:22.809Z,3.10
2022-11-16T09:46:07.367Z,2.78
2022-11-16T09:48:36.820Z,2.50
2022-11-16T09:51:08.220Z,2.33
2022-11-16T09:53:55.432Z,2.38
2022-11-16T09:56:25.318Z,1.77
2022-11-16T09:59:02.658Z,2.47
2022-11-16T10:01:38.411Z,2.78
2022-11-16T10:04:11.418Z,1.90
2022-11-16T10:06:54.379Z,2.45
2022-11-16T10:09:21.509Z,1.98
2022-11-16T10:12:19.197Z,2.35
2022-11-16T10:14:45.738Z,2.75
2022-11-16T10:17:29.191Z,2.60
2022-11-16T10:20:15.626Z,2.08
2022-11-16T10:22:58.472Z,2.47
2022-11-16T10:25:44.111Z,2.20
2022-11-16T10:28:31.124Z,2.47
2022-11-16T10:31:13.755Z,1.48
2022-11-16T10:33:43.609Z,1.60
2022-11-16T10:36:14.619Z,2.10
2022-11-16T10:38:43.118Z,2.70
2022-11-16T10:41:40.878Z,2.20
2022-11-16T10:52:06.795Z,1.73
2022-11-16T10:54:33.407Z,1.65
2022-11-16T10:57:08.844Z,1.70
2022-11-16T10:59:44.444Z,3.17
2022-11-16T11:02:36.835Z,2.00
2022-11-16T11:07:50.723Z,2.00
2022-11-16T11:10:37.385Z,1.52
2022-11-16T11:13:13.598Z,2.47
2022-11-16T11:15:42.411Z,2.03
2022-11-16T11:18:24.312Z,1.83
2022-11-16T11:21:07.594Z,2.10
2022-11-16T11:23:52.291Z,2.13
2022-11-16T11:26:35.886Z,2.00
2022-11-16T11:29:25.228Z,1.70
2022-11-16T11:34:26.640Z,1.67
2022-11-16T11:36:58.070Z,1.50
2022-11-16T11:39:24.675Z,1.95
2022-11-16T11:42:14.914Z,2.28
2022-11-16T11:44:41.474Z,1.60
2022-11-16T11:50:26.900Z,1.40
2022-11-16T11:53:15.705Z,1.95
2022-11-16T11:55:42.502Z,2.15
2022-11-16T11:58:17.269Z,1.50
2022-11-16T12:01:25.794Z,2.00
2022-11-16T12:04:07.719Z,2.13
2022-11-16T12:07:09.609Z,1.52
2022-11-16T12:09:59.745Z,2.85
2022-11-16T12:12:35.221Z,1.80
2022-11-16T12:15:41.610Z,2.03
2022-11-16T12:18:28.916Z,1.80
2022-11-16T12:21:34.563Z,1.42
2022-11-16T12:24:21.743Z,2.15
2022-11-16T12:27:26.868Z,1.63
2022-11-16T12:30:11.814Z,1.60
2022-11-16T12:32:38.376Z,1.48
2022-11-16T12:35:41.765Z,2.23
2022-11-16T12:38:33.071Z,1.80
2022-11-16T12:41:28.797Z,1.30
2022-11-16T12:43:58.469Z,1.60
2022-11-16T12:46:46.751Z,1.37
2022-11-16T12:49:41.375Z,1.42
2022-11-16T12:52:43.533Z,1.30
2022-11-16T12:55:30.602Z,1.35
2022-11-16T12:58:09.514Z,2.03
2022-11-16T13:00:59.532Z,1.30
2022-11-16T13:03:37.706Z,1.70
2022-11-16T13:06:12.326Z,2.05
2022-11-16T13:08:57.082Z,1.70
2022-11-16T13:11:29.693Z,1.33
2022-11-16T13:14:01.528Z,1.58
2022-11-16T13:16:29.376Z,1.87
2022-11-16T13:18:58.035Z,1.30
2022-11-16T13:22:03.743Z,1.50
2022-11-16T13:24:44.519Z,1.52
2022-11-16T13:27:23.963Z,1.60
2022-11-16T13:30:18.189Z,2.17
2022-11-16T13:33:05.027Z,1.60
2022-11-16T13:35:35.865Z,1.20
2022-11-16T13:38:02.556Z,1.50
2022-11-16T13:40:33.391Z,1.85
2022-11-16T13:43:11.937Z,1.45
2022-11-16T13:45:59.899Z,1.80
2022-11-16T13:48:34.873Z,1.60
2022-11-16T13:51:04.804Z,1.10
2022-11-16T13:54:43.254Z,2.53
2022-11-16T13:56:28.566Z,1.37
2022-11-16T13:58:55.913Z,1.55
2022-11-16T14:01:23.735Z,1.20
2022-11-16T14:03:52.157Z,1.25
2022-11-16T14:06:24.699Z,1.55
2022-11-16T14:08:52.992Z,1.20
2022-11-16T14:11:38.718Z,1.50
2022-11-16T14:14:25.251Z,1.30
2022-11-16T14:16:52.077Z,1.20
2022-11-16T14:19:51.753Z,1.50
2022-11-16T14:22:35.988Z,1.30
2022-11-16T14:25:28.350Z,1.27
2022-11-16T14:28:12.220Z,1.13
2022-11-16T14:31:06.654Z,1.33
2022-11-16T14:33:35.963Z,1.20
2022-11-16T14:36:06.138Z,1.30
2022-11-16T14:38:38.349Z,1.23
2022-11-16T14:41:07.369Z,1.20
2022-11-16T14:43:45.515Z,1.20
2022-11-16T14:46:26.104Z,1.25
2022-11-16T14:48:55.872Z,1.33
2022-11-16T14:51:27.081Z,1.17
2022-11-16T14:53:57.593Z,1.23
2022-11-16T14:56:24.254Z,1.27
2022-11-16T14:58:57.878Z,1.40
2022-11-16T15:01:35.058Z,1.17
2022-11-16T15:04:08.347Z,1.10
2022-11-16T15:06:57.928Z,1.17
2022-11-16T15:09:31.002Z,1.45
2022-11-16T15:12:17.462Z,0.93
2022-11-16T15:14:51.222Z,1.30
2022-11-16T15:17:21.971Z,4.25
2022-11-16T15:20:14.832Z,8.15
2022-11-16T15:22:44.754Z,8.07
2022-11-16T15:25:23.862Z,4.47
2022-11-16T15:27:50.772Z,4.67
2022-11-16T15:30:30.050Z,5.03
2022-11-16T15:32:56.838Z,5.03
2022-11-16T15:35:34.933Z,5.38
2022-11-16T15:38:15.806Z,5.23
2022-11-16T15:41:03.524Z,3.53
2022-11-16T15:44:12.198Z,3.30
2022-11-16T15:46:37.807Z,5.80
2022-11-16T15:49:09.003Z,5.55
2022-11-16T15:51:43.187Z,3.35
2022-11-16T15:54:30.176Z,3.35
2022-11-16T15:57:06.269Z,3.03
2022-11-16T15:59:35.504Z,2.38
2022-11-16T16:02:03.237Z,5.15
2022-11-16T16:04:30.193Z,5.00
2022-11-16T16:06:59.487Z,3.97
2022-11-16T16:09:32.108Z,5.70
2022-11-16T16:12:22.059Z,8.98
2022-11-16T16:14:50.785Z,10.60
2022-11-16T16:17:27.222Z,6.18
2022-11-16T16:19:58.034Z,5.93
2022-11-16T16:22:33.471Z,7.57
2022-11-16T16:25:04.023Z,7.40
2022-11-16T16:27:32.048Z,7.15
2022-11-16T16:30:03.874Z,6.22
2022-11-16T16:32:35.779Z,4.53
2022-11-16T16:35:05.425Z,3.92
2022-11-16T16:37:33.471Z,2.97
2022-11-16T16:40:00.384Z,3.67
2022-11-16T16:42:27.139Z,2.83
